Time;durP1;ratioP1;P1;durP2;ratioP2;P2;SDS_P1;SDS_P2;PMS_P1;PMS_P2;Temp;Humidity;BMP_temperature;BMP_pressure;BME280_temperature;BME280_humidity;BME280_pressure;Samples;Min_cycle;Max_cycle;Signal;HPM_P1;HPM_P2
2021/12/05 00:22:28;;;;;;;23.17;16.03;;;;;;;-2.07;100.00;99307.59;20935141;28;20318;-68
2021/12/05 00:32:43;;;;;;;22.27;15.80;;;;;;;-2.17;100.00;99316.59;20991631;28;20582;-68
2021/12/05 00:43:21;;;;;;;24.90;16.37;;;;;;;-2.16;100.00;99318.31;20974745;28;20226;-64
2021/12/05 01:04:27;;;;;;;29.83;19.17;;;;;;;-2.20;100.00;99327.16;20984604;28;20234;-65
2021/12/05 01:14:36;;;;;;;27.73;18.47;;;;;;;-2.29;100.00;99332.63;20989408;28;20222;-61
2021/12/05 01:24:52;;;;;;;27.00;17.83;;;;;;;-2.05;100.00;99347.59;20926675;28;20227;-63
2021/12/05 01:35:08;;;;;;;23.30;15.40;;;;;;;-1.55;100.00;99340.00;20887510;28;20294;-70
2021/12/05 02:16:40;;;;;;;23.40;16.87;;;;;;;-0.85;100.00;99319.41;20902481;28;20310;-59
2021/12/05 02:47:48;;;;;;;18.90;14.70;;;;;;;-0.45;100.00;99309.25;20832044;28;20723;-63
2021/12/05 02:57:55;;;;;;;21.60;15.80;;;;;;;-0.47;100.00;99295.31;20900795;28;20227;-69
2021/12/05 03:08:01;;;;;;;18.07;13.83;;;;;;;-0.47;100.00;99292.72;20884325;28;20306;-69
2021/12/05 03:18:07;;;;;;;19.97;13.80;;;;;;;-0.52;100.00;99292.03;20915764;28;20231;-69
2021/12/05 03:28:11;;;;;;;22.57;17.60;;;;;;;-0.56;100.00;99285.19;20915520;28;20238;-71
2021/12/05 03:38:15;;;;;;;22.67;15.50;;;;;;;-0.47;100.00;99310.19;20930065;28;20223;-70
2021/12/05 03:48:21;;;;;;;22.27;15.97;;;;;;;-0.64;100.00;99307.34;20912410;28;20752;-68
2021/12/05 03:58:26;;;;;;;24.07;17.17;;;;;;;-0.90;100.00;99300.38;20911708;28;20223;-64
2021/12/05 04:08:31;;;;;;;23.20;17.00;;;;;;;-1.26;100.00;99282.38;20910725;28;20235;-68
2021/12/05 04:18:37;;;;;;;22.00;15.43;;;;;;;-1.52;100.00;99300.69;20911270;28;20230;-66
2021/12/05 04:28:40;;;;;;;23.47;16.00;;;;;;;-1.68;100.00;99321.22;20914492;28;20227;-68
2021/12/05 04:38:44;;;;;;;24.53;17.07;;;;;;;-1.81;100.00;99319.88;20908436;28;20243;-59
2021/12/05 04:48:50;;;;;;;25.20;16.97;;;;;;;-1.85;100.00;99329.59;20907779;28;20237;-60
2021/12/05 04:58:58;;;;;;;24.60;16.97;;;;;;;-1.88;100.00;99340.13;20906561;28;20225;-59
2021/12/05 05:09:05;;;;;;;22.77;15.87;;;;;;;-1.94;100.00;99339.47;20988532;28;20238;-60
2021/12/05 05:19:10;;;;;;;22.80;16.97;;;;;;;-2.02;100.00;99331.84;20989037;28;20223;-60
2021/12/05 05:29:53;;;;;;;22.43;17.20;;;;;;;-2.04;100.00;99323.19;20988154;28;20306;-60
2021/12/05 05:40:17;;;;;;;22.80;17.03;;;;;;;-2.04;100.00;99320.56;20987565;28;20241;-59
2021/12/05 05:50:22;;;;;;;23.87;16.63;;;;;;;-1.88;100.00;99329.69;20986821;28;20231;-59
2021/12/05 06:00:32;;;;;;;21.23;15.07;;;;;;;-1.75;100.00;99334.53;20986619;28;20708;-60
2021/12/05 06:10:35;;;;;;;19.83;14.17;;;;;;;-1.76;100.00;99345.91;20986286;28;20250;-60
2021/12/05 06:20:40;;;;;;;23.20;16.97;;;;;;;-1.85;100.00;99341.81;20984754;28;20661;-61
2021/12/05 06:30:52;;;;;;;25.23;18.90;;;;;;;-1.85;100.00;99363.56;20984240;28;20306;-60
2021/12/05 06:41:05;;;;;;;40.83;26.57;;;;;;;-1.81;100.00;99378.25;20986362;28;20233;-64
2021/12/05 06:51:10;;;;;;;46.47;27.77;;;;;;;-1.71;100.00;99388.47;21000633;28;20233;-67
2021/12/05 07:01:15;;;;;;;25.30;18.10;;;;;;;-1.61;100.00;99400.38;21000020;28;20231;-66
2021/12/05 07:11:26;;;;;;;21.27;15.73;;;;;;;-1.58;100.00;99411.59;20999652;28;20254;-64
2021/12/05 07:21:38;;;;;;;21.67;16.87;;;;;;;-1.51;100.00;99409.63;20993851;28;20256;-60
2021/12/05 07:42:06;;;;;;;23.60;18.43;;;;;;;-1.05;100.00;99416.06;20995657;28;20234;-68
2021/12/05 07:52:14;;;;;;;26.27;19.27;;;;;;;-0.85;100.00;99405.84;20994989;28;20704;-67
2021/12/05 08:22:50;;;;;;;27.10;19.97;;;;;;;-0.05;100.00;99433.66;20913089;28;20622;-73
2021/12/05 08:33:13;;;;;;;26.43;20.30;;;;;;;0.04;100.00;99422.81;20909450;28;20293;-72
2021/12/05 09:25:00;;;;;;;19.77;14.57;;;;;;;0.78;100.00;99442.78;20896661;28;20250;-68
2021/12/05 10:06:53;;;;;;;21.83;16.53;;;;;;;1.58;100.00;99456.22;20901387;28;20278;-60
2021/12/05 10:17:26;;;;;;;28.60;18.23;;;;;;;1.65;100.00;99453.28;20899528;28;20632;-60
2021/12/05 10:38:02;;;;;;;20.20;16.33;;;;;;;1.41;100.00;99443.78;20860728;28;20242;-59
2021/12/05 10:48:10;;;;;;;23.17;17.73;;;;;;;1.33;100.00;99432.72;20881831;28;20227;-59
2021/12/05 10:58:14;;;;;;;24.70;17.80;;;;;;;1.12;100.00;99441.47;20899681;28;20244;-59
2021/12/05 11:08:39;;;;;;;19.47;15.77;;;;;;;0.87;100.00;99429.31;20898443;28;20227;-59
2021/12/05 11:18:44;;;;;;;25.20;17.00;;;;;;;0.88;100.00;99446.78;20899491;28;20595;-59
2021/12/05 11:28:55;;;;;;;23.97;17.07;;;;;;;0.92;100.00;99451.00;20901992;28;20721;-59
2021/12/05 11:38:58;;;;;;;27.53;19.10;;;;;;;0.93;100.00;99451.84;20913488;28;20633;-59
2021/12/05 11:49:10;;;;;;;27.30;19.70;;;;;;;0.96;100.00;99452.59;20913137;28;20220;-59
2021/12/05 11:59:18;;;;;;;31.33;21.83;;;;;;;0.57;100.00;99427.88;20912415;28;20316;-60
2021/12/05 12:09:25;;;;;;;33.87;24.00;;;;;;;-0.06;100.00;99422.31;20910019;28;20281;-59
2021/12/05 12:19:28;;;;;;;37.37;27.50;;;;;;;-0.26;100.00;99419.53;20908983;28;20799;-75
2021/12/05 12:29:32;;;;;;;38.90;26.03;;;;;;;-0.15;100.00;99427.03;20909574;28;20314;-75
2021/12/05 12:39:40;;;;;;;39.37;25.47;;;;;;;-0.11;100.00;99418.13;20907029;28;20255;-59
2021/12/05 12:49:43;;;;;;;35.03;24.63;;;;;;;0.03;100.00;99436.84;20929568;28;20629;-63
2021/12/05 12:59:57;;;;;;;33.30;22.87;;;;;;;0.15;100.00;99449.53;20893928;28;20227;-65
2021/12/05 13:10:08;;;;;;;29.63;21.30;;;;;;;0.24;100.00;99454.44;20865633;28;20223;-67
2021/12/05 13:20:14;;;;;;;34.07;22.07;;;;;;;0.29;100.00;99480.50;20910628;28;20231;-60
2021/12/05 13:30:30;;;;;;;32.30;21.67;;;;;;;0.24;100.00;99499.03;20915741;28;20754;-64
2021/12/05 13:40:34;;;;;;;28.13;20.47;;;;;;;0.22;100.00;99505.25;20926804;28;20241;-67
2021/12/05 13:50:43;;;;;;;29.27;21.37;;;;;;;0.19;100.00;99518.47;20926065;28;20227;-66
2021/12/05 14:01:20;;;;;;;25.90;19.77;;;;;;;0.17;100.00;99523.78;20922647;28;20258;-62
2021/12/05 14:11:25;;;;;;;26.57;19.53;;;;;;;0.13;100.00;99522.16;20925323;28;20920;-62
2021/12/05 14:21:29;;;;;;;34.70;24.47;;;;;;;0.02;100.00;99519.06;20915624;28;20599;-60
2021/12/05 14:31:36;;;;;;;29.37;21.67;;;;;;;-0.09;100.00;99515.94;20918566;28;20238;-60
2021/12/05 14:41:41;;;;;;;29.63;21.93;;;;;;;-0.21;100.00;99524.22;20922774;28;20235;-62
2021/12/05 14:51:45;;;;;;;35.13;25.33;;;;;;;-0.26;100.00;99534.88;20922639;28;20337;-59
2021/12/05 15:01:53;;;;;;;34.17;25.90;;;;;;;-0.32;100.00;99534.19;20925024;28;20419;-63
2021/12/05 15:12:20;;;;;;;33.20;24.40;;;;;;;-0.34;100.00;99547.34;20940076;28;20356;-61
2021/12/05 15:22:23;;;;;;;34.80;24.83;;;;;;;-0.37;100.00;99569.31;20938250;28;20242;-59
2021/12/05 15:32:29;;;;;;;40.73;28.80;;;;;;;-0.44;100.00;99552.03;20936116;28;20231;-59
2021/12/05 15:42:36;;;;;;;43.03;30.43;;;;;;;-0.47;100.00;99567.00;20941319;28;20310;-62
2021/12/05 15:52:51;;;;;;;45.87;31.03;;;;;;;-0.50;100.00;99573.22;20934145;28;20735;-61
2021/12/05 16:03:03;;;;;;;47.00;32.80;;;;;;;-0.50;100.00;99562.72;20933283;28;20363;-66
2021/12/05 16:13:27;;;;;;;47.37;32.47;;;;;;;-0.49;100.00;99574.06;20930466;28;20303;-67
2021/12/05 16:23:32;;;;;;;42.60;29.97;;;;;;;-0.47;100.00;99578.34;20935029;28;20237;-62
2021/12/05 16:33:36;;;;;;;50.57;35.40;;;;;;;-0.45;100.00;99581.78;20928949;28;20227;-59
2021/12/05 16:44:08;;;;;;;41.53;29.03;;;;;;;-0.41;100.00;99583.41;20925761;28;20854;-61
2021/12/05 16:54:17;;;;;;;39.90;28.83;;;;;;;-0.38;100.00;99564.97;20923011;28;20227;-69
2021/12/05 17:04:21;;;;;;;46.80;32.80;;;;;;;-0.36;100.00;99578.84;20930733;28;20641;-65
2021/12/05 17:14:27;;;;;;;48.20;34.27;;;;;;;-0.30;100.00;99595.31;20924992;28;20307;-74
2021/12/05 17:24:34;;;;;;;49.37;33.80;;;;;;;-0.27;100.00;99592.59;20921464;28;20238;-70
2021/12/05 17:34:47;;;;;;;45.80;32.87;;;;;;;-0.22;100.00;99595.91;20925829;28;20230;-68
2021/12/05 17:44:55;;;;;;;39.07;27.27;;;;;;;-0.19;100.00;99599.28;20912065;28;20230;-63
2021/12/05 17:55:05;;;;;;;36.93;26.93;;;;;;;-0.16;100.00;99608.84;20914679;28;20257;-65
2021/12/05 18:05:15;;;;;;;35.97;26.17;;;;;;;-0.13;100.00;99606.13;20913493;28;20234;-72
2021/12/05 18:15:27;;;;;;;32.53;24.17;;;;;;;-0.08;100.00;99591.06;20893752;28;20231;-65
2021/12/05 18:25:31;;;;;;;34.83;25.67;;;;;;;-0.06;100.00;99602.38;20902242;28;20246;-61
2021/12/05 18:35:42;;;;;;;34.70;24.30;;;;;;;-0.03;100.00;99615.41;20921697;28;20226;-64
2021/12/05 18:45:46;;;;;;;34.83;25.73;;;;;;;0.02;100.00;99638.84;20940233;28;20270;-62
2021/12/05 18:55:52;;;;;;;34.10;24.90;;;;;;;0.04;100.00;99637.03;20919098;28;20223;-62
2021/12/05 19:06:06;;;;;;;31.37;23.20;;;;;;;0.05;100.00;99634.34;20934414;28;20233;-69
2021/12/05 19:16:10;;;;;;;40.23;26.60;;;;;;;0.04;100.00;99632.63;20932702;28;20241;-61
2021/12/05 19:31:56;;;;;;;44.10;28.67;;;;;;;0.05;100.00;99654.47;20974503;27;21247;-64
2021/12/05 19:42:00;;;;;;;41.53;27.80;;;;;;;0.07;100.00;99664.03;20970505;28;20475;-64
2021/12/05 19:52:04;;;;;;;43.60;28.83;;;;;;;0.06;100.00;99670.16;20975375;28;20343;-65
2021/12/05 20:02:10;;;;;;;44.73;30.07;;;;;;;0.05;100.00;99694.69;20973227;28;20226;-63
2021/12/05 20:12:14;;;;;;;49.37;31.97;;;;;;;0.07;100.00;99702.50;20928329;28;20229;-65
2021/12/05 20:22:18;;;;;;;40.93;27.77;;;;;;;0.08;100.00;99710.31;20968090;27;20231;-70
2021/12/05 20:32:22;;;;;;;49.63;32.33;;;;;;;0.10;100.00;99710.28;20995489;28;20236;-69
2021/12/05 20:42:25;;;;;;;47.63;29.03;;;;;;;0.08;100.00;99706.84;20936231;28;20700;-63
2021/12/05 20:52:29;;;;;;;47.90;30.00;;;;;;;0.07;100.00;99706.00;20929561;28;21150;-58
2021/12/05 21:02:32;;;;;;;50.17;30.43;;;;;;;0.06;100.00;99708.66;20937667;28;20246;-64
2021/12/05 21:12:36;;;;;;;45.80;27.27;;;;;;;0.02;100.00;99702.63;20940010;28;20219;-69
2021/12/05 21:22:41;;;;;;;54.77;33.77;;;;;;;0.04;100.00;99699.97;20936542;28;20227;-64
2021/12/05 21:32:46;;;;;;;49.70;29.83;;;;;;;0.03;100.00;99704.34;20935871;28;20230;-59
2021/12/05 21:42:51;;;;;;;48.13;30.23;;;;;;;0.02;100.00;99707.88;20929135;28;20366;-61
2021/12/05 21:53:02;;;;;;;48.90;30.60;;;;;;;0.02;100.00;99702.63;20929405;28;20965;-68
2021/12/05 22:03:06;;;;;;;45.90;29.73;;;;;;;0.03;100.00;99700.88;20925598;28;20234;-67
2021/12/05 22:13:10;;;;;;;45.17;29.47;;;;;;;0.04;100.00;99713.94;20927145;28;20788;-61
2021/12/05 22:23:16;;;;;;;47.90;30.53;;;;;;;0.06;100.00;99714.75;20909158;28;20732;-60
2021/12/05 22:33:20;;;;;;;40.03;26.57;;;;;;;0.04;100.00;99703.44;20926545;28;20234;-65
2021/12/05 22:43:28;;;;;;;40.57;25.37;;;;;;;0.06;100.00;99699.03;20926405;28;20976;-59
2021/12/05 22:53:33;;;;;;;41.27;24.77;;;;;;;0.09;100.00;99708.56;20974736;28;20219;-65
2021/12/05 23:03:56;;;;;;;38.47;24.67;;;;;;;0.11;100.00;99696.28;20985079;28;20306;-67
2021/12/05 23:14:00;;;;;;;38.73;25.57;;;;;;;0.12;100.00;99698.81;20985649;28;20214;-60
2021/12/05 23:24:11;;;;;;;41.37;26.07;;;;;;;0.14;100.00;99691.75;20984975;28;20297;-65
2021/12/05 23:34:15;;;;;;;36.47;24.07;;;;;;;0.14;100.00;99686.50;20984958;28;20841;-64
2021/12/05 23:44:20;;;;;;;33.00;23.03;;;;;;;0.16;100.00;99684.69;20984361;28;20299;-67
2021/12/05 23:54:24;;;;;;;29.93;20.27;;;;;;;0.17;100.00;99701.31;20984264;28;20223;-67
